Time;durP1;ratioP1;P1;durP2;ratioP2;P2;SDS_P1;SDS_P2;PMS_P1;PMS_P2;Temp;Humidity;BMP_temperature;BMP_pressure;BME280_temperature;BME280_humidity;BME280_pressure;Samples;Min_cycle;Max_cycle;Signal;HPM_P1;HPM_P2
2022/08/31 00:04:49;;;;;;;1.70;0.95;;;16.00;99.90;;;;;;5034548;28;20132;-78
2022/08/31 00:07:15;;;;;;;2.23;0.90;;;16.00;99.90;;;;;;5033400;28;20128;-79
2022/08/31 00:09:41;;;;;;;1.70;1.00;;;16.00;99.90;;;;;;5034461;28;20151;-79
2022/08/31 00:12:07;;;;;;;2.13;1.00;;;16.00;99.90;;;;;;5034273;28;20045;-78
2022/08/31 00:14:32;;;;;;;1.03;0.80;;;16.00;99.90;;;;;;5034253;28;20508;-79
2022/08/31 00:16:58;;;;;;;1.47;0.87;;;15.90;99.90;;;;;;5034333;28;20049;-78
2022/08/31 00:19:23;;;;;;;1.98;0.80;;;16.00;99.90;;;;;;5034540;28;20084;-79
2022/08/31 00:21:49;;;;;;;4.00;0.97;;;15.90;99.90;;;;;;5033609;28;20045;-78
2022/08/31 00:24:15;;;;;;;1.77;0.90;;;16.00;99.90;;;;;;5033328;28;20038;-79
2022/08/31 00:26:41;;;;;;;3.63;0.80;;;15.90;99.90;;;;;;5033958;28;20397;-78
2022/08/31 00:29:08;;;;;;;1.85;0.90;;;15.90;99.90;;;;;;5033235;28;20057;-79
2022/08/31 00:31:33;;;;;;;2.90;0.90;;;15.90;99.90;;;;;;5034117;28;20501;-78
2022/08/31 00:33:59;;;;;;;2.17;0.80;;;15.90;99.90;;;;;;5034018;28;20207;-79
2022/08/31 00:36:25;;;;;;;1.33;0.77;;;15.80;99.90;;;;;;5032877;28;20041;-78
2022/08/31 00:38:52;;;;;;;1.50;0.80;;;15.90;99.90;;;;;;5034002;28;20149;-79
2022/08/31 00:41:19;;;;;;;;;;;15.80;99.90;;;;;;5034347;28;20052;-78
2022/08/31 00:43:48;;;;;;;1.35;0.77;;;15.80;99.90;;;;;;5033949;28;19921;-78
2022/08/31 00:46:19;;;;;;;1.42;0.80;;;15.80;99.90;;;;;;5033893;28;20478;-78
2022/08/31 00:48:54;;;;;;;2.30;0.80;;;15.80;99.90;;;;;;5033986;28;20058;-78
2022/08/31 00:51:19;;;;;;;2.63;0.90;;;15.80;99.90;;;;;;5033098;28;20061;-79
2022/08/31 00:53:46;;;;;;;1.60;0.70;;;15.80;99.90;;;;;;5033909;28;20584;-78
2022/08/31 00:56:12;;;;;;;;;;;15.80;99.90;;;;;;5033858;28;20056;-78
2022/08/31 00:58:38;;;;;;;1.60;0.90;;;15.70;99.90;;;;;;5016576;28;19921;-79
2022/08/31 01:01:06;;;;;;;1.13;0.70;;;15.70;99.90;;;;;;5034299;28;20052;-79
2022/08/31 01:03:32;;;;;;;2.72;0.77;;;15.70;99.90;;;;;;5033848;28;20038;-79
2022/08/31 01:05:57;;;;;;;3.50;0.90;;;15.60;99.90;;;;;;5033818;28;20048;-79
2022/08/31 01:08:23;;;;;;;2.40;0.90;;;15.70;99.90;;;;;;5033555;28;20496;-78
2022/08/31 01:10:49;;;;;;;2.13;0.80;;;15.60;99.90;;;;;;5033769;28;20045;-79
2022/08/31 01:13:15;;;;;;;1.53;0.83;;;15.50;99.90;;;;;;5016601;28;20516;-78
2022/08/31 01:15:53;;;;;;;1.03;0.60;;;15.70;99.90;;;;;;5015950;28;20057;-79
2022/08/31 01:18:20;;;;;;;2.40;0.77;;;15.50;99.90;;;;;;5033758;28;20053;-79
2022/08/31 01:20:52;;;;;;;;;;;15.40;99.90;;;;;;5033910;28;20065;-78
2022/08/31 01:23:25;;;;;;;1.27;0.70;;;15.30;99.90;;;;;;5033148;28;19931;-79
2022/08/31 01:25:54;;;;;;;2.30;0.88;;;15.30;99.90;;;;;;5032363;28;20046;-78
2022/08/31 01:28:20;;;;;;;1.60;0.80;;;15.30;99.90;;;;;;5033398;28;20072;-79
2022/08/31 01:31:05;;;;;;;1.70;0.87;;;15.20;99.90;;;;;;5033387;28;20057;-79
2022/08/31 01:33:32;;;;;;;1.50;0.80;;;15.20;99.90;;;;;;5033425;28;20369;-79
2022/08/31 01:35:58;;;;;;;2.67;0.80;;;15.10;99.90;;;;;;5034253;28;20056;-79
2022/08/31 01:38:24;;;;;;;1.95;0.80;;;15.00;99.90;;;;;;5036094;28;20085;-79
2022/08/31 01:41:00;;;;;;;1.13;0.70;;;15.00;99.90;;;;;;5035827;28;20048;-78
2022/08/31 01:43:27;;;;;;;1.45;0.70;;;15.00;99.90;;;;;;5037283;28;20044;-78
2022/08/31 01:45:52;;;;;;;1.40;0.77;;;14.90;99.90;;;;;;5037490;28;20041;-79
2022/08/31 01:48:19;;;;;;;1.30;0.60;;;14.90;99.90;;;;;;5035863;28;20045;-79
2022/08/31 01:50:45;;;;;;;0.88;0.60;;;14.80;99.90;;;;;;5037134;28;20081;-78
2022/08/31 01:53:11;;;;;;;1.65;0.80;;;14.80;99.90;;;;;;5037168;28;20354;-78
2022/08/31 01:55:37;;;;;;;0.97;0.60;;;14.70;99.90;;;;;;5019389;28;20095;-79
2022/08/31 01:58:03;;;;;;;0.97;0.60;;;14.70;99.90;;;;;;5035810;28;20041;-78
2022/08/31 02:00:30;;;;;;;1.30;0.75;;;14.80;99.90;;;;;;5037182;28;20045;-78
2022/08/31 02:02:59;;;;;;;1.23;0.60;;;14.70;99.90;;;;;;5036657;28;20433;-79
2022/08/31 02:05:25;;;;;;;0.90;0.70;;;14.60;99.90;;;;;;5036065;28;20345;-79
2022/08/31 02:07:51;;;;;;;2.00;0.70;;;14.60;99.90;;;;;;5037198;28;20037;-78
2022/08/31 02:10:17;;;;;;;1.10;0.70;;;14.50;99.90;;;;;;5019703;28;20473;-78
2022/08/31 02:12:43;;;;;;;3.55;0.68;;;14.50;99.90;;;;;;5036796;28;20041;-78
2022/08/31 02:15:09;;;;;;;1.63;0.70;;;14.50;99.90;;;;;;5037085;28;20053;-78
2022/08/31 02:17:34;;;;;;;1.00;0.60;;;14.40;99.90;;;;;;5036495;28;20481;-79
2022/08/31 02:20:00;;;;;;;1.52;0.82;;;14.40;99.90;;;;;;5036575;28;20287;-78
2022/08/31 02:22:25;;;;;;;2.03;0.75;;;14.40;99.90;;;;;;5036480;28;20045;-79
2022/08/31 02:24:51;;;;;;;1.63;0.75;;;14.30;99.90;;;;;;5035393;28;20084;-79
2022/08/31 02:27:17;;;;;;;0.73;0.60;;;14.30;99.90;;;;;;5036475;28;20049;-79
2022/08/31 02:29:42;;;;;;;1.15;0.60;;;14.30;99.90;;;;;;5036522;28;20084;-78
2022/08/31 02:32:08;;;;;;;1.80;0.82;;;14.20;99.90;;;;;;5036253;28;20091;-78
2022/08/31 02:34:34;;;;;;;0.90;0.60;;;14.20;99.90;;;;;;5018880;28;20049;-79
2022/08/31 02:36:59;;;;;;;1.10;0.55;;;14.20;99.90;;;;;;5036584;28;20132;-79
2022/08/31 02:39:25;;;;;;;1.08;0.60;;;14.20;99.90;;;;;;5036357;28;20050;-78
2022/08/31 02:41:50;;;;;;;1.30;0.70;;;14.10;99.90;;;;;;5036413;28;20049;-78
2022/08/31 02:44:16;;;;;;;1.15;0.80;;;14.10;99.90;;;;;;5034943;28;20045;-78
2022/08/31 02:46:41;;;;;;;0.97;0.70;;;14.10;99.90;;;;;;5036032;28;20069;-78
2022/08/31 02:49:07;;;;;;;1.20;0.77;;;14.00;99.90;;;;;;5034027;28;20049;-78
2022/08/31 02:51:33;;;;;;;1.92;0.63;;;14.00;99.90;;;;;;5036024;28;20490;-79
2022/08/31 02:53:58;;;;;;;3.17;0.70;;;14.00;99.90;;;;;;5035863;28;20038;-78
2022/08/31 02:56:24;;;;;;;0.93;0.50;;;13.90;99.90;;;;;;5034724;28;20130;-79
2022/08/31 02:58:53;;;;;;;1.13;0.70;;;14.00;99.90;;;;;;5035885;28;20052;-78
2022/08/31 03:01:21;;;;;;;1.48;0.73;;;13.90;99.90;;;;;;5035760;28;20049;-79
2022/08/31 03:03:47;;;;;;;1.02;0.60;;;13.80;99.90;;;;;;5035728;28;20044;-78
2022/08/31 03:06:13;;;;;;;2.95;0.80;;;14.00;99.90;;;;;;5035706;28;20067;-78
2022/08/31 03:08:40;;;;;;;2.90;0.77;;;13.70;99.90;;;;;;5035659;28;20038;-78
2022/08/31 03:11:07;;;;;;;1.38;0.82;;;13.70;99.90;;;;;;5035620;28;20088;-78
2022/08/31 03:13:32;;;;;;;2.30;0.73;;;13.60;99.90;;;;;;5035231;28;20049;-78
2022/08/31 03:15:58;;;;;;;0.93;0.60;;;13.60;99.90;;;;;;5035219;28;20050;-78
2022/08/31 03:18:23;;;;;;;1.90;0.70;;;13.60;99.90;;;;;;5034548;28;20076;-78
2022/08/31 03:20:49;;;;;;;2.92;0.70;;;13.50;99.90;;;;;;5035768;28;20041;-78
2022/08/31 03:23:15;;;;;;;1.35;0.60;;;13.50;99.90;;;;;;5035746;28;20124;-79
2022/08/31 03:25:41;;;;;;;2.65;0.70;;;13.50;99.90;;;;;;5035463;28;20107;-78
2022/08/31 03:28:07;;;;;;;1.03;0.60;;;13.40;99.90;;;;;;5035442;28;20469;-78
2022/08/31 03:30:32;;;;;;;1.20;0.70;;;13.30;99.90;;;;;;5035264;28;20128;-78
2022/08/31 03:32:58;;;;;;;2.13;0.80;;;13.30;99.90;;;;;;5034752;28;20132;-78
2022/08/31 03:35:24;;;;;;;1.45;0.80;;;13.20;99.90;;;;;;5035222;28;20045;-78
2022/08/31 03:37:50;;;;;;;1.38;0.75;;;13.20;99.90;;;;;;5035028;28;20049;-78
2022/08/31 03:40:15;;;;;;;1.17;0.70;;;13.20;99.90;;;;;;5035040;28;20049;-78
2022/08/31 03:42:41;;;;;;;1.88;0.82;;;13.10;99.90;;;;;;5033854;28;20041;-78
2022/08/31 03:45:07;;;;;;;1.13;0.70;;;13.00;99.90;;;;;;5035174;28;20041;-78
2022/08/31 03:47:34;;;;;;;1.93;0.97;;;13.00;99.90;;;;;;5034885;28;20435;-78
2022/08/31 03:50:02;;;;;;;2.05;0.80;;;13.00;99.90;;;;;;5034825;28;20052;-79
2022/08/31 03:52:28;;;;;;;1.63;0.80;;;13.00;99.90;;;;;;5034728;28;20055;-78
2022/08/31 03:54:54;;;;;;;1.60;1.00;;;12.90;99.90;;;;;;5035079;28;20045;-78
2022/08/31 03:57:20;;;;;;;1.08;0.70;;;12.90;99.90;;;;;;5034720;28;20516;-78
2022/08/31 03:59:45;;;;;;;1.58;1.05;;;13.20;99.90;;;;;;5034453;28;20117;-78
2022/08/31 04:02:11;;;;;;;3.30;1.00;;;12.70;99.90;;;;;;5033536;28;20041;-77
2022/08/31 04:04:36;;;;;;;1.17;0.85;;;12.60;99.90;;;;;;5034561;28;20080;-78
2022/08/31 04:07:02;;;;;;;4.55;1.33;;;12.90;99.90;;;;;;5034889;28;20049;-78
2022/08/31 04:09:28;;;;;;;2.53;0.93;;;12.60;99.90;;;;;;5034736;28;20045;-79
2022/08/31 04:11:54;;;;;;;2.30;1.10;;;12.60;99.90;;;;;;5033169;28;20447;-78
2022/08/31 04:14:20;;;;;;;1.60;0.80;;;12.60;99.90;;;;;;5034479;28;20085;-79
2022/08/31 04:16:45;;;;;;;2.88;0.90;;;12.50;99.90;;;;;;5033070;28;20508;-78
2022/08/31 04:19:14;;;;;;;3.80;1.00;;;12.50;99.90;;;;;;5034532;28;20088;-78
2022/08/31 04:21:42;;;;;;;2.60;1.10;;;12.50;99.90;;;;;;5034605;28;20061;-79
2022/08/31 04:24:09;;;;;;;2.00;0.93;;;12.40;99.90;;;;;;5034201;28;20049;-79
2022/08/31 04:26:36;;;;;;;1.43;1.00;;;12.40;99.90;;;;;;5034387;28;20049;-78
2022/08/31 04:29:03;;;;;;;1.35;0.80;;;12.40;99.90;;;;;;5034111;28;20292;-79
2022/08/31 04:31:29;;;;;;;1.38;0.80;;;12.30;99.90;;;;;;5034526;28;20071;-79
2022/08/31 04:33:56;;;;;;;2.70;1.00;;;12.30;99.90;;;;;;5032550;28;20056;-78
2022/08/31 04:36:24;;;;;;;1.95;1.02;;;12.30;99.90;;;;;;5034107;28;20045;-79
2022/08/31 04:38:53;;;;;;;2.22;1.02;;;12.20;99.90;;;;;;5032820;28;20052;-78
2022/08/31 04:41:21;;;;;;;3.40;1.02;;;12.20;99.90;;;;;;5033754;28;20444;-78
2022/08/31 04:43:52;;;;;;;4.30;1.20;;;12.20;99.90;;;;;;5033877;28;20091;-78
2022/08/31 04:46:19;;;;;;;1.60;1.00;;;12.20;99.90;;;;;;5032693;28;20076;-78
2022/08/31 04:48:45;;;;;;;1.45;0.80;;;12.20;99.90;;;;;;5033846;28;20477;-78
2022/08/31 04:51:16;;;;;;;2.90;1.02;;;12.10;99.90;;;;;;5033853;28;20132;-78
2022/08/31 04:53:43;;;;;;;1.80;0.95;;;12.10;99.90;;;;;;5034061;28;20084;-79
2022/08/31 04:56:15;;;;;;;2.42;0.93;;;12.20;99.90;;;;;;5033773;28;20128;-78
2022/08/31 04:58:46;;;;;;;3.28;1.10;;;12.10;99.90;;;;;;5033236;28;20107;-78
2022/08/31 05:01:15;;;;;;;2.35;0.93;;;12.10;99.90;;;;;;5033914;28;20042;-78
2022/08/31 05:03:42;;;;;;;2.17;1.10;;;12.10;99.90;;;;;;5034771;28;20037;-78
2022/08/31 05:06:16;;;;;;;1.80;1.02;;;12.10;99.90;;;;;;5033372;28;20505;-79
2022/08/31 05:08:42;;;;;;;1.88;1.02;;;12.10;99.90;;;;;;5033644;28;20041;-78
2022/08/31 05:11:13;;;;;;;1.95;1.13;;;12.10;99.90;;;;;;5036635;28;20046;-79
2022/08/31 05:13:39;;;;;;;1.80;0.98;;;12.10;99.90;;;;;;5039959;28;20046;-78
2022/08/31 05:16:07;;;;;;;1.90;1.10;;;12.10;99.90;;;;;;5039465;28;20106;-78
2022/08/31 05:18:33;;;;;;;1.60;0.90;;;12.10;99.90;;;;;;5040135;28;20045;-79
2022/08/31 05:21:29;;;;;;;2.90;0.98;;;12.10;99.90;;;;;;5040246;28;20053;-78
2022/08/31 05:23:56;;;;;;;1.38;0.95;;;12.10;99.90;;;;;;5024112;28;20412;-78
2022/08/31 05:26:24;;;;;;;1.30;0.90;;;12.30;99.90;;;;;;5040270;28;20053;-78
2022/08/31 05:28:50;;;;;;;2.05;1.00;;;12.10;99.90;;;;;;5040076;28;20098;-78
2022/08/31 05:31:16;;;;;;;2.08;1.02;;;12.20;99.90;;;;;;5039127;28;20045;-78
2022/08/31 05:33:43;;;;;;;2.15;1.10;;;12.10;99.90;;;;;;5039858;28;20038;-78
2022/08/31 05:36:10;;;;;;;2.03;1.05;;;12.10;99.90;;;;;;5040055;28;20049;-78
2022/08/31 05:38:36;;;;;;;2.78;1.35;;;12.20;99.90;;;;;;5040011;28;20053;-78
2022/08/31 05:41:04;;;;;;;1.95;1.00;;;12.30;99.90;;;;;;5039986;28;20045;-78
2022/08/31 05:43:31;;;;;;;2.45;1.00;;;12.20;99.90;;;;;;5039979;28;20048;-78
2022/08/31 05:45:57;;;;;;;1.98;0.90;;;12.20;99.90;;;;;;5039776;28;20443;-78
2022/08/31 05:48:23;;;;;;;3.63;1.10;;;12.20;99.90;;;;;;5039692;28;20417;-79
2022/08/31 05:50:49;;;;;;;1.50;1.13;;;12.20;99.90;;;;;;5039852;28;20450;-78
2022/08/31 05:53:15;;;;;;;1.95;1.10;;;12.20;99.90;;;;;;5038641;28;20077;-78
2022/08/31 05:55:41;;;;;;;3.47;1.43;;;12.20;99.90;;;;;;5039062;28;20041;-78
2022/08/31 05:58:07;;;;;;;1.95;1.25;;;12.20;99.90;;;;;;5039845;28;20060;-78
2022/08/31 06:00:33;;;;;;;3.22;1.10;;;12.30;99.90;;;;;;5038837;28;20136;-79
2022/08/31 06:02:59;;;;;;;1.48;1.00;;;12.30;99.90;;;;;;5039707;28;20087;-79
2022/08/31 06:05:25;;;;;;;5.38;1.33;;;12.30;99.90;;;;;;5038558;28;20080;-79
2022/08/31 06:07:51;;;;;;;1.52;1.15;;;12.30;99.90;;;;;;5039691;28;20049;-78
2022/08/31 06:10:18;;;;;;;2.33;1.27;;;12.30;99.90;;;;;;5039640;28;20084;-78
2022/08/31 06:12:46;;;;;;;5.18;1.50;;;12.40;99.90;;;;;;5038407;28;20699;-78
2022/08/31 06:15:14;;;;;;;2.78;1.17;;;12.40;99.90;;;;;;5039497;28;20099;-78
2022/08/31 06:17:40;;;;;;;3.35;1.20;;;12.60;99.90;;;;;;5039564;28;20064;-78
2022/08/31 06:20:08;;;;;;;3.65;1.35;;;12.60;99.90;;;;;;5039551;28;20469;-78
2022/08/31 06:22:35;;;;;;;1.30;1.00;;;12.60;99.90;;;;;;5038091;28;20049;-78
2022/08/31 06:25:03;;;;;;;2.25;1.15;;;12.70;99.90;;;;;;5036451;28;20049;-79
2022/08/31 06:27:29;;;;;;;2.75;1.50;;;12.80;99.90;;;;;;5036361;28;20048;-78
2022/08/31 06:29:56;;;;;;;4.93;1.35;;;12.90;99.90;;;;;;5036570;28;20037;-79
2022/08/31 06:32:22;;;;;;;4.57;1.38;;;12.90;99.90;;;;;;5036338;28;20063;-78
2022/08/31 06:34:48;;;;;;;2.10;1.20;;;12.90;99.90;;;;;;5036265;28;20488;-78
2022/08/31 06:37:13;;;;;;;4.97;1.55;;;13.20;99.90;;;;;;5035078;28;20049;-79
2022/08/31 06:39:39;;;;;;;3.47;1.20;;;13.40;99.90;;;;;;5036206;28;20081;-78
2022/08/31 06:42:05;;;;;;;2.17;1.20;;;13.50;99.90;;;;;;5036292;28;20049;-78
2022/08/31 06:44:30;;;;;;;2.37;1.07;;;13.60;99.90;;;;;;5036108;28;20470;-78
2022/08/31 06:46:56;;;;;;;3.22;1.38;;;13.70;99.90;;;;;;5036097;28;20099;-79
2022/08/31 06:49:22;;;;;;;2.83;1.40;;;13.80;99.90;;;;;;5035967;28;20478;-78
2022/08/31 06:51:49;;;;;;;3.97;1.20;;;13.80;99.90;;;;;;5035011;28;20128;-79
2022/08/31 06:54:16;;;;;;;;;;;14.00;99.90;;;;;;5036309;28;20052;-78
2022/08/31 06:56:43;;;;;;;2.75;1.40;;;14.20;99.90;;;;;;5035895;28;19921;-78
2022/08/31 06:59:09;;;;;;;2.72;1.65;;;14.40;99.90;;;;;;5036029;28;20064;-78
2022/08/31 07:01:35;;;;;;;2.75;1.67;;;14.50;99.90;;;;;;5035790;28;20466;-78
2022/08/31 07:04:04;;;;;;;7.00;1.52;;;14.80;99.90;;;;;;5034665;28;20055;-78
2022/08/31 07:06:41;;;;;;;3.33;1.48;;;14.80;99.90;;;;;;5035030;28;20572;-79
2022/08/31 07:09:09;;;;;;;2.83;1.85;;;15.00;99.90;;;;;;5035720;28;20053;-78
2022/08/31 07:11:38;;;;;;;4.07;1.67;;;15.20;99.90;;;;;;5034679;28;20054;-78
2022/08/31 07:14:05;;;;;;;2.63;1.50;;;15.30;99.90;;;;;;5035411;28;20144;-78
2022/08/31 07:16:31;;;;;;;4.85;1.40;;;15.60;99.90;;;;;;5035489;28;20057;-79
2022/08/31 07:18:59;;;;;;;1.97;1.30;;;15.70;99.90;;;;;;5018263;28;20049;-78
2022/08/31 07:21:31;;;;;;;2.67;1.45;;;15.70;99.90;;;;;;5034468;28;20327;-78
2022/08/31 07:23:59;;;;;;;3.25;1.50;;;15.80;99.90;;;;;;5035756;28;20071;-78
2022/08/31 07:26:32;;;;;;;3.03;1.50;;;16.00;99.90;;;;;;5035394;28;20050;-78
2022/08/31 07:28:58;;;;;;;2.80;1.40;;;15.90;99.90;;;;;;5035238;28;20064;-79
2022/08/31 07:31:29;;;;;;;3.05;1.20;;;16.10;99.90;;;;;;5035546;28;20050;-79
2022/08/31 07:33:56;;;;;;;2.67;1.20;;;16.10;99.90;;;;;;5034527;28;20045;-78
2022/08/31 07:36:22;;;;;;;;;;;16.30;99.90;;;;;;5035895;28;20056;-78
2022/08/31 07:44:18;;;;;;;1.77;1.08;;;16.50;99.90;;;;;;5035025;28;20041;-78
2022/08/31 07:46:44;;;;;;;;;;;16.60;99.90;;;;;;5035689;28;20048;-78
2022/08/31 07:49:12;;;;;;;3.58;1.20;;;16.70;99.90;;;;;;5034982;28;19921;-78
2022/08/31 07:51:50;;;;;;;1.52;1.05;;;16.80;99.90;;;;;;5033550;28;20081;-79
2022/08/31 07:54:28;;;;;;;2.40;1.20;;;17.00;99.90;;;;;;5034740;28;20050;-79
2022/08/31 07:57:03;;;;;;;1.77;1.00;;;17.10;99.90;;;;;;5033644;28;20045;-79
2022/08/31 07:59:31;;;;;;;2.20;1.10;;;17.10;99.90;;;;;;5034959;28;20057;-78
2022/08/31 08:02:00;;;;;;;4.50;1.15;;;17.20;99.90;;;;;;5034694;28;20099;-79
2022/08/31 08:04:27;;;;;;;2.38;0.93;;;17.40;99.90;;;;;;5034618;28;20110;-79
2022/08/31 08:06:55;;;;;;;2.13;1.02;;;17.70;99.90;;;;;;5034549;28;20041;-79
2022/08/31 08:09:28;;;;;;;3.03;1.20;;;17.60;99.90;;;;;;5034609;28;20049;-78
2022/08/31 08:11:56;;;;;;;1.77;1.08;;;18.00;99.90;;;;;;5033364;28;20048;-78
2022/08/31 08:14:24;;;;;;;3.05;1.10;;;17.90;99.90;;;;;;5034574;28;20394;-78
2022/08/31 08:16:50;;;;;;;2.50;1.08;;;18.00;99.90;;;;;;5033480;28;20056;-78
2022/08/31 08:19:16;;;;;;;2.75;0.98;;;18.10;99.90;;;;;;5034346;28;20050;-78
2022/08/31 08:21:42;;;;;;;1.60;0.87;;;18.10;99.90;;;;;;5034342;28;20403;-78
2022/08/31 08:24:09;;;;;;;2.45;0.98;;;18.20;99.90;;;;;;5034319;28;20088;-78
2022/08/31 08:26:35;;;;;;;;;;;18.20;99.90;;;;;;5034691;28;20052;-79
2022/08/31 08:29:03;;;;;;;2.78;1.10;;;18.20;99.90;;;;;;5034208;28;19922;-79
2022/08/31 08:31:28;;;;;;;2.10;1.13;;;18.30;99.90;;;;;;5034103;28;20049;-78
2022/08/31 08:33:54;;;;;;;3.30;1.13;;;18.40;99.90;;;;;;5034025;28;20041;-79
2022/08/31 08:36:20;;;;;;;3.17;1.20;;;18.50;99.90;;;;;;5033934;28;20045;-79
2022/08/31 08:38:49;;;;;;;1.47;0.80;;;18.60;99.90;;;;;;5032690;28;20077;-78
2022/08/31 08:41:21;;;;;;;4.13;1.17;;;18.70;99.90;;;;;;5033033;28;20474;-78
2022/08/31 08:43:53;;;;;;;3.92;1.08;;;18.80;99.90;;;;;;5033824;28;20539;-78
2022/08/31 08:46:32;;;;;;;3.17;1.02;;;18.90;99.90;;;;;;5031729;28;20049;-78
2022/08/31 08:49:01;;;;;;;4.80;1.00;;;19.00;99.90;;;;;;5033797;28;20049;-78
2022/08/31 08:51:34;;;;;;;1.83;0.82;;;19.20;99.90;;;;;;5015955;28;20468;-78
2022/08/31 08:54:08;;;;;;;3.80;0.70;;;19.10;99.90;;;;;;5033780;28;20048;-79
2022/08/31 08:56:45;;;;;;;2.15;1.10;;;19.20;99.90;;;;;;5033906;28;20041;-78
2022/08/31 08:59:12;;;;;;;2.35;0.88;;;19.20;99.90;;;;;;5033847;28;20544;-79
2022/08/31 09:01:38;;;;;;;1.77;0.90;;;19.30;99.90;;;;;;5016574;28;20041;-79
2022/08/31 09:04:25;;;;;;;4.53;0.98;;;19.40;99.90;;;;;;5033780;28;20166;-78
2022/08/31 09:07:17;;;;;;;2.80;1.05;;;19.40;99.60;;;;;;5032610;28;20045;-78
2022/08/31 09:10:05;;;;;;;2.90;0.73;;;19.50;99.30;;;;;;5034315;28;20087;-78
2022/08/31 09:12:58;;;;;;;1.73;0.90;;;19.60;98.80;;;;;;5033768;28;20045;-78
2022/08/31 09:15:46;;;;;;;4.25;0.93;;;19.70;98.00;;;;;;5033702;28;20057;-78
2022/08/31 09:18:26;;;;;;;2.47;0.73;;;19.80;97.80;;;;;;5034010;28;20061;-79
2022/08/31 09:21:27;;;;;;;1.30;0.80;;;19.80;97.30;;;;;;5033880;28;20049;-79
2022/08/31 09:24:06;;;;;;;5.88;0.90;;;20.00;97.40;;;;;;5032534;28;20511;-78
2022/08/31 09:26:50;;;;;;;6.82;1.00;;;20.00;97.30;;;;;;5032439;28;20049;-78
2022/08/31 09:29:21;;;;;;;3.15;0.93;;;20.10;96.80;;;;;;5033847;28;20042;-78
2022/08/31 09:31:46;;;;;;;2.60;0.80;;;20.10;96.90;;;;;;5016102;28;20231;-79
2022/08/31 09:34:36;;;;;;;5.73;1.00;;;20.20;97.00;;;;;;5033439;28;20037;-79
2022/08/31 09:37:32;;;;;;;4.13;0.90;;;20.30;96.60;;;;;;5033784;28;20045;-79
2022/08/31 09:40:13;;;;;;;2.17;0.98;;;20.20;96.20;;;;;;5031900;28;20083;-79
2022/08/31 09:42:39;;;;;;;3.45;1.00;;;20.20;96.10;;;;;;5033487;28;20056;-79
2022/08/31 09:45:28;;;;;;;3.05;0.73;;;20.20;96.70;;;;;;5032282;28;20500;-79
2022/08/31 09:47:59;;;;;;;4.63;1.13;;;20.40;96.50;;;;;;5033375;28;20477;-78
2022/08/31 09:50:29;;;;;;;3.08;1.05;;;20.50;96.80;;;;;;5033547;28;20041;-79
2022/08/31 09:56:13;;;;;;;2.50;0.90;;;20.80;95.60;;;;;;5033282;28;20053;-79
2022/08/31 09:58:41;;;;;;;3.47;1.00;;;20.90;95.80;;;;;;5035931;28;20046;-79
2022/08/31 10:01:13;;;;;;;2.10;0.80;;;21.00;96.00;;;;;;5036712;28;20060;-79
2022/08/31 10:03:44;;;;;;;4.50;0.80;;;21.10;95.80;;;;;;5035958;28;20175;-78
2022/08/31 10:06:40;;;;;;;3.13;0.77;;;21.30;95.10;;;;;;5036911;28;20050;-79
2022/08/31 10:09:13;;;;;;;3.60;0.98;;;21.30;95.30;;;;;;5036846;28;20393;-79
2022/08/31 10:11:43;;;;;;;3.53;0.82;;;21.40;95.30;;;;;;5036899;28;20060;-79
2022/08/31 10:14:23;;;;;;;4.60;0.82;;;21.50;94.80;;;;;;5036417;28;20405;-79
2022/08/31 10:17:05;;;;;;;3.17;0.73;;;21.60;94.70;;;;;;5035630;28;20053;-78
2022/08/31 10:19:45;;;;;;;3.03;0.90;;;21.70;94.00;;;;;;5036997;28;20140;-79
2022/08/31 10:22:29;;;;;;;1.45;0.70;;;21.70;94.20;;;;;;5036249;28;20500;-79
2022/08/31 10:25:14;;;;;;;3.08;1.00;;;21.70;93.80;;;;;;5037076;28;20050;-79
2022/08/31 10:27:50;;;;;;;3.67;0.93;;;21.80;93.50;;;;;;5036447;28;20053;-79
2022/08/31 10:30:41;;;;;;;2.30;0.95;;;21.90;93.30;;;;;;5036343;28;20466;-79
2022/08/31 10:33:10;;;;;;;1.38;0.70;;;21.80;93.00;;;;;;5036231;28;20124;-79
2022/08/31 10:35:49;;;;;;;2.05;0.57;;;21.80;93.10;;;;;;5035537;28;20042;-79
2022/08/31 10:38:32;;;;;;;1.38;0.65;;;21.80;93.20;;;;;;5036620;28;20048;-79
2022/08/31 10:41:16;;;;;;;2.33;0.70;;;21.90;93.50;;;;;;5036306;28;20379;-78
2022/08/31 10:44:00;;;;;;;2.13;0.70;;;21.90;92.00;;;;;;5036063;28;20042;-79
2022/08/31 10:46:29;;;;;;;2.78;0.80;;;22.00;91.80;;;;;;5036445;28;20088;-79
2022/08/31 10:48:56;;;;;;;1.40;0.73;;;22.00;91.90;;;;;;5036018;28;20060;-79
2022/08/31 10:51:27;;;;;;;5.45;0.85;;;22.00;92.10;;;;;;5036215;28;20056;-79
2022/08/31 10:54:27;;;;;;;1.58;0.80;;;22.10;92.50;;;;;;5034827;28;20054;-79
2022/08/31 10:57:18;;;;;;;2.38;0.75;;;22.10;91.20;;;;;;5034935;28;20547;-79
2022/08/31 11:00:40;;;;;;;2.17;0.90;;;22.20;91.30;;;;;;5035991;28;20045;-78
2022/08/31 11:03:12;;;;;;;4.90;0.82;;;22.10;91.80;;;;;;5035548;28;20092;-78
2022/08/31 11:05:47;;;;;;;2.75;0.80;;;22.10;92.20;;;;;;5035840;28;20079;-78
2022/08/31 11:08:12;;;;;;;2.67;0.88;;;22.10;92.00;;;;;;5035147;28;20038;-79
2022/08/31 11:10:54;;;;;;;2.00;0.80;;;22.10;92.00;;;;;;5035437;28;20045;-79
2022/08/31 11:14:13;;;;;;;2.80;1.00;;;22.20;91.90;;;;;;5035578;28;20359;-78
2022/08/31 11:16:39;;;;;;;;;;;22.40;91.50;;;;;;5036241;28;20389;-78
2022/08/31 11:19:27;;;;;;;2.60;0.88;;;22.50;91.00;;;;;;5034500;28;19929;-78
2022/08/31 11:22:12;;;;;;;1.17;0.70;;;22.60;90.60;;;;;;5034349;28;20132;-79
2022/08/31 11:25:02;;;;;;;3.35;0.90;;;22.70;91.00;;;;;;5035644;28;20112;-79
2022/08/31 11:27:42;;;;;;;3.28;0.80;;;22.70;90.80;;;;;;5035384;28;20049;-78
2022/08/31 11:30:25;;;;;;;2.85;0.90;;;22.80;90.60;;;;;;5034599;28;20055;-79
2022/08/31 11:32:55;;;;;;;4.05;1.00;;;22.80;90.80;;;;;;5035101;28;20087;-78
2022/08/31 11:35:46;;;;;;;4.25;0.88;;;22.90;90.70;;;;;;5035829;28;20056;-79
2022/08/31 11:38:47;;;;;;;1.73;0.85;;;23.00;90.40;;;;;;5035109;28;20054;-78
2022/08/31 11:41:47;;;;;;;3.35;0.90;;;23.00;90.60;;;;;;5035096;28;20046;-78
2022/08/31 11:44:32;;;;;;;3.58;1.10;;;23.10;90.00;;;;;;5035003;28;20050;-79
2022/08/31 11:47:34;;;;;;;1.85;0.73;;;23.00;90.50;;;;;;5034895;28;20064;-80
2022/08/31 11:50:35;;;;;;;2.90;1.00;;;23.00;88.40;;;;;;5034050;28;20103;-79
2022/08/31 11:53:24;;;;;;;1.98;0.73;;;23.20;88.70;;;;;;5004145;28;20049;-79
2022/08/31 11:55:54;;;;;;;1.20;0.70;;;23.30;90.10;;;;;;5033701;28;20049;-78
2022/08/31 11:58:32;;;;;;;4.82;0.82;;;23.40;89.60;;;;;;5033935;28;20041;-79
2022/08/31 12:01:02;;;;;;;1.38;0.60;;;23.60;89.10;;;;;;5034739;28;20052;-79
2022/08/31 12:03:34;;;;;;;2.40;1.00;;;23.60;89.10;;;;;;5034601;28;20485;-79
2022/08/31 12:06:00;;;;;;;1.85;0.80;;;23.60;87.20;;;;;;5034634;28;20041;-79
2022/08/31 12:08:31;;;;;;;2.50;0.80;;;23.60;86.90;;;;;;5034636;28;20041;-79
2022/08/31 12:11:30;;;;;;;1.27;0.68;;;23.70;88.20;;;;;;5034766;28;20423;-79
2022/08/31 12:14:22;;;;;;;2.03;0.90;;;23.80;87.10;;;;;;5033205;28;20107;-79
2022/08/31 12:17:12;;;;;;;2.80;0.70;;;23.80;86.20;;;;;;5034353;28;20056;-79
2022/08/31 12:25:49;;;;;;;3.80;0.82;;;24.00;86.60;;;;;;5032940;28;20049;-79
2022/08/31 12:28:25;;;;;;;2.75;0.80;;;24.20;86.10;;;;;;5034272;28;20050;-79
2022/08/31 12:30:53;;;;;;;3.03;0.75;;;24.20;85.20;;;;;;5034217;28;20061;-79
2022/08/31 12:33:27;;;;;;;1.05;0.55;;;24.30;85.30;;;;;;5016290;28;20045;-78
2022/08/31 12:36:09;;;;;;;2.80;0.88;;;24.30;85.00;;;;;;5034070;28;20091;-78
2022/08/31 12:38:34;;;;;;;1.58;0.70;;;24.40;85.30;;;;;;5032990;28;20049;-78
2022/08/31 12:41:02;;;;;;;1.70;0.70;;;24.40;84.90;;;;;;5034508;28;20124;-79
2022/08/31 12:43:41;;;;;;;4.07;0.88;;;24.40;85.20;;;;;;5032814;28;20081;-78
2022/08/31 12:46:45;;;;;;;2.97;0.73;;;24.40;85.00;;;;;;5033973;28;20481;-79
2022/08/31 12:49:38;;;;;;;2.72;0.77;;;24.30;83.60;;;;;;4993514;28;20418;-79
2022/08/31 12:52:38;;;;;;;3.63;0.90;;;24.20;84.30;;;;;;5034150;28;20465;-78
2022/08/31 12:55:18;;;;;;;3.30;0.80;;;24.30;84.60;;;;;;5033876;28;20045;-78
2022/08/31 12:58:17;;;;;;;1.40;0.60;;;24.30;84.70;;;;;;5033070;28;20045;-80
2022/08/31 13:00:42;;;;;;;2.97;0.90;;;24.40;83.30;;;;;;5016353;28;20059;-80
2022/08/31 13:03:15;;;;;;;2.97;1.10;;;24.40;84.00;;;;;;5032928;28;20037;-79
2022/08/31 13:05:41;;;;;;;3.33;0.90;;;24.40;82.60;;;;;;5032381;28;20099;-80
2022/08/31 13:08:24;;;;;;;1.87;0.80;;;24.50;81.30;;;;;;5033161;28;20053;-79
2022/08/31 13:10:50;;;;;;;2.35;0.70;;;24.40;80.30;;;;;;5033749;28;20045;-79
2022/08/31 13:13:24;;;;;;;1.83;0.80;;;24.40;81.00;;;;;;5032863;28;20049;-79
2022/08/31 13:15:56;;;;;;;3.55;0.90;;;24.40;81.90;;;;;;5033685;28;20041;-79
2022/08/31 13:18:25;;;;;;;2.90;0.80;;;24.40;81.60;;;;;;5034290;28;20486;-79
2022/08/31 13:20:55;;;;;;;2.17;0.85;;;24.40;81.80;;;;;;5034102;28;20038;-79
2022/08/31 13:23:43;;;;;;;1.52;0.70;;;24.40;80.70;;;;;;5032070;28;20045;-79
2022/08/31 13:26:19;;;;;;;2.33;0.80;;;24.40;80.40;;;;;;5034002;28;20523;-78
2022/08/31 13:29:02;;;;;;;3.50;1.50;;;24.60;81.40;;;;;;5033572;28;20440;-78